createdAt,value
2018-03-14T00:00:10.145Z,6.07
2018-03-14T00:00:41.825Z,4.45
2018-03-14T00:01:13.488Z,5.45
2018-03-14T00:01:45.143Z,6.00
2018-03-14T00:02:16.785Z,3.47
2018-03-14T00:02:48.438Z,7.57
2018-03-14T00:03:20.078Z,4.00
2018-03-14T00:03:51.744Z,5.95
2018-03-14T00:04:23.373Z,6.37
2018-03-14T00:04:55.014Z,5.85
2018-03-14T00:05:26.631Z,4.78
2018-03-14T00:05:58.259Z,3.75
2018-03-14T00:06:29.909Z,4.25
2018-03-14T00:07:01.527Z,9.70
2018-03-14T00:07:33.179Z,4.80
2018-03-14T00:08:04.834Z,4.15
2018-03-14T00:08:36.479Z,4.30
2018-03-14T00:09:08.125Z,3.78
2018-03-14T00:09:39.759Z,9.30
2018-03-14T00:10:11.424Z,3.20
2018-03-14T00:10:43.059Z,7.37
2018-03-14T00:11:14.687Z,2.92
2018-03-14T00:11:46.327Z,3.37
2018-03-14T00:12:17.957Z,6.20
2018-03-14T00:12:49.605Z,4.93
2018-03-14T00:13:21.232Z,3.35
2018-03-14T00:13:52.857Z,3.58
2018-03-14T00:14:24.495Z,4.43
2018-03-14T00:14:56.121Z,2.25
2018-03-14T00:15:27.756Z,6.57
2018-03-14T00:15:59.386Z,5.40
2018-03-14T00:16:31.055Z,4.53
2018-03-14T00:17:02.679Z,8.00
2018-03-14T00:17:34.314Z,6.60
2018-03-14T00:18:05.997Z,4.62
2018-03-14T00:18:37.623Z,5.95
2018-03-14T00:19:09.273Z,3.55
2018-03-14T00:19:40.947Z,5.82
2018-03-14T00:20:12.579Z,2.85
2018-03-14T00:20:44.185Z,4.55
2018-03-14T00:21:15.831Z,4.90
2018-03-14T00:21:47.463Z,3.40
2018-03-14T00:22:31.472Z,7.03
2018-03-14T00:23:03.121Z,4.45
2018-03-14T00:23:34.749Z,4.12
2018-03-14T00:24:06.383Z,3.55
2018-03-14T00:24:38.066Z,4.95
2018-03-14T00:25:09.714Z,4.00
2018-03-14T00:25:41.459Z,4.18
2018-03-14T00:26:13.101Z,4.50
2018-03-14T00:26:44.734Z,4.95
2018-03-14T00:27:16.379Z,4.75
2018-03-14T00:27:48.089Z,5.25
2018-03-14T00:28:19.735Z,6.62
2018-03-14T00:28:51.369Z,5.62
2018-03-14T00:29:23.012Z,6.70
2018-03-14T00:29:54.651Z,7.62
2018-03-14T00:30:26.278Z,5.87
2018-03-14T00:30:57.915Z,9.27
2018-03-14T00:31:29.559Z,4.22
2018-03-14T00:32:01.195Z,5.47
2018-03-14T00:32:32.834Z,3.47
2018-03-14T00:33:04.485Z,6.57
2018-03-14T00:33:36.129Z,5.35
2018-03-14T00:34:07.767Z,7.40
2018-03-14T00:34:39.405Z,3.25
2018-03-14T00:35:11.100Z,4.37
2018-03-14T00:35:42.741Z,6.87
2018-03-14T00:36:14.381Z,3.00
2018-03-14T00:36:46.008Z,4.32
2018-03-14T00:37:17.647Z,6.00
2018-03-14T00:37:49.287Z,6.18
2018-03-14T00:38:20.929Z,3.22
2018-03-14T00:38:52.563Z,8.52
2018-03-14T00:39:24.216Z,5.03
2018-03-14T00:39:55.861Z,3.05
2018-03-14T00:40:27.506Z,3.62
2018-03-14T00:40:59.134Z,3.60
2018-03-14T00:41:30.771Z,4.37
2018-03-14T00:42:02.397Z,4.90
2018-03-14T00:42:34.039Z,6.35
2018-03-14T00:43:05.680Z,3.03
2018-03-14T00:43:37.333Z,6.78
2018-03-14T00:44:08.980Z,6.07
2018-03-14T00:44:40.626Z,5.37
2018-03-14T00:45:12.267Z,5.00
2018-03-14T00:45:44.041Z,7.10
2018-03-14T00:46:15.723Z,5.28
2018-03-14T00:46:47.389Z,5.15
2018-03-14T00:47:19.021Z,4.45
2018-03-14T00:47:50.675Z,8.07
2018-03-14T00:48:22.329Z,4.72
2018-03-14T00:48:53.972Z,6.18
2018-03-14T00:49:25.609Z,4.60
2018-03-14T00:49:57.251Z,6.93
2018-03-14T00:50:28.856Z,3.47
2018-03-14T00:51:00.485Z,3.80
2018-03-14T00:51:32.143Z,4.93
2018-03-14T00:52:03.768Z,5.00
2018-03-14T00:52:35.420Z,4.03
2018-03-14T00:53:07.069Z,6.90
2018-03-14T00:53:38.701Z,4.65
2018-03-14T00:54:10.343Z,6.28
2018-03-14T00:54:41.980Z,4.12
2018-03-14T00:55:13.615Z,5.95
2018-03-14T00:55:45.255Z,5.90
2018-03-14T00:56:16.913Z,7.12
2018-03-14T00:56:48.553Z,3.20
2018-03-14T00:57:20.194Z,3.97
2018-03-14T00:57:51.850Z,5.45
2018-03-14T00:58:23.467Z,7.10
2018-03-14T00:58:55.095Z,6.87
2018-03-14T00:59:26.733Z,4.03
2018-03-14T00:59:58.397Z,7.12
2018-03-14T01:00:30.037Z,3.67
2018-03-14T01:01:01.666Z,5.75
2018-03-14T01:01:33.345Z,11.57
2018-03-14T01:02:05.037Z,4.85
2018-03-14T01:02:36.684Z,5.32
2018-03-14T01:03:08.325Z,5.90
2018-03-14T01:03:39.975Z,6.97
2018-03-14T01:04:11.617Z,6.90
2018-03-14T01:04:43.263Z,9.98
2018-03-14T01:05:14.919Z,5.55
2018-03-14T01:05:46.559Z,4.85
2018-03-14T01:06:18.223Z,5.05
2018-03-14T01:06:49.848Z,7.78
2018-03-14T01:07:21.567Z,6.78
2018-03-14T01:07:53.225Z,7.62
2018-03-14T01:08:24.865Z,4.70
2018-03-14T01:08:56.523Z,6.97
2018-03-14T01:09:28.157Z,3.33
2018-03-14T01:09:59.817Z,6.72
2018-03-14T01:10:31.473Z,6.03
2018-03-14T01:11:03.136Z,11.23
2018-03-14T01:11:34.761Z,5.45
2018-03-14T01:12:06.415Z,6.10
2018-03-14T01:12:38.054Z,5.65
2018-03-14T01:13:09.685Z,6.12
2018-03-14T01:13:41.321Z,6.70
2018-03-14T01:14:12.965Z,6.30
2018-03-14T01:14:44.612Z,7.68
2018-03-14T01:15:16.241Z,3.50
2018-03-14T01:15:47.863Z,3.47
2018-03-14T01:16:19.515Z,7.78
2018-03-14T01:16:51.185Z,5.62
2018-03-14T01:17:22.827Z,5.37
2018-03-14T01:17:54.515Z,8.57
2018-03-14T01:18:26.174Z,4.70
2018-03-14T01:18:57.808Z,8.98
2018-03-14T01:19:29.451Z,5.28
2018-03-14T01:20:01.091Z,5.20
2018-03-14T01:20:32.743Z,6.35
2018-03-14T01:21:04.398Z,7.60
2018-03-14T01:21:36.032Z,8.00
2018-03-14T01:22:07.669Z,7.03
2018-03-14T01:22:39.293Z,4.82
2018-03-14T01:23:10.957Z,7.03
2018-03-14T01:23:42.589Z,6.50
2018-03-14T01:24:14.241Z,9.23
2018-03-14T01:24:45.879Z,5.95
2018-03-14T01:25:17.527Z,8.35
2018-03-14T01:25:49.164Z,7.12
2018-03-14T01:26:20.809Z,4.35
2018-03-14T01:26:52.441Z,9.90
2018-03-14T01:27:24.079Z,3.22
2018-03-14T01:27:55.693Z,7.15
2018-03-14T01:28:27.337Z,7.47
2018-03-14T01:28:58.985Z,6.45
2018-03-14T01:29:30.631Z,8.27
2018-03-14T01:30:02.307Z,5.12
2018-03-14T01:30:33.958Z,11.80
2018-03-14T01:31:05.603Z,7.45
2018-03-14T01:31:37.224Z,5.55
2018-03-14T01:32:08.879Z,4.60
2018-03-14T01:32:40.538Z,8.70
2018-03-14T01:33:12.173Z,8.93
2018-03-14T01:33:43.806Z,6.75
2018-03-14T01:34:15.426Z,7.43
2018-03-14T01:34:47.081Z,5.80
2018-03-14T01:35:18.712Z,5.35
2018-03-14T01:35:50.380Z,5.72
2018-03-14T01:36:22.005Z,4.32
2018-03-14T01:36:53.645Z,8.25
2018-03-14T01:37:25.289Z,5.35
2018-03-14T01:37:56.947Z,5.95
2018-03-14T01:38:28.557Z,5.87
2018-03-14T01:39:01.407Z,6.45
2018-03-14T01:39:33.037Z,4.12
2018-03-14T01:40:04.701Z,7.72
2018-03-14T01:40:36.333Z,8.00
2018-03-14T01:41:08.039Z,8.98
2018-03-14T01:41:39.699Z,9.27
2018-03-14T01:42:11.359Z,6.12
2018-03-14T01:42:42.963Z,6.30
2018-03-14T01:43:14.594Z,6.70
2018-03-14T01:43:46.221Z,16.23
2018-03-14T01:44:17.867Z,7.68
2018-03-14T01:44:49.508Z,6.05
2018-03-14T01:45:21.161Z,7.05
2018-03-14T01:45:52.831Z,7.47
2018-03-14T01:46:24.476Z,7.95
2018-03-14T01:51:47.627Z,10.10
2018-03-14T01:52:19.261Z,6.95
2018-03-14T01:52:50.963Z,6.95
2018-03-14T01:53:27.659Z,5.87
2018-03-14T01:53:59.283Z,6.80
2018-03-14T01:54:30.912Z,6.53
2018-03-14T01:55:02.595Z,7.70
2018-03-14T01:55:34.204Z,6.20
2018-03-14T01:56:05.857Z,6.03
2018-03-14T01:56:37.489Z,5.07
2018-03-14T01:57:09.146Z,6.57
2018-03-14T01:57:40.787Z,6.57
2018-03-14T01:58:12.435Z,4.65
2018-03-14T01:58:44.088Z,5.97
2018-03-14T01:59:15.691Z,5.95
2018-03-14T01:59:47.320Z,9.07
2018-03-14T02:00:18.976Z,7.82
2018-03-14T02:00:50.640Z,7.53
2018-03-14T02:01:22.268Z,5.28
2018-03-14T02:01:53.936Z,5.53
2018-03-14T02:02:25.621Z,4.30
2018-03-14T02:02:57.281Z,6.40
2018-03-14T02:03:28.923Z,6.37
2018-03-14T02:04:00.563Z,10.23
2018-03-14T02:04:32.206Z,6.20
2018-03-14T02:05:03.861Z,8.00
2018-03-14T02:05:35.529Z,6.85
2018-03-14T02:06:07.168Z,6.95
2018-03-14T02:06:38.825Z,7.78
2018-03-14T02:07:10.477Z,5.68
2018-03-14T02:07:42.121Z,6.55
2018-03-14T02:08:13.823Z,6.43
2018-03-14T02:08:45.477Z,6.37
2018-03-14T02:09:17.100Z,6.37
2018-03-14T02:09:48.736Z,5.95
2018-03-14T02:10:20.385Z,8.25
2018-03-14T02:10:52.044Z,7.90
2018-03-14T02:11:23.687Z,7.47
2018-03-14T02:11:55.331Z,8.52
2018-03-14T02:12:26.982Z,6.05
2018-03-14T02:12:58.629Z,10.55
2018-03-14T02:13:30.297Z,7.72
2018-03-14T02:14:01.971Z,7.55
2018-03-14T02:14:33.622Z,6.40
2018-03-14T02:15:05.263Z,13.80
2018-03-14T02:15:36.929Z,7.07
2018-03-14T02:16:08.618Z,11.48
2018-03-14T02:16:40.257Z,5.57
2018-03-14T02:17:11.891Z,6.10
2018-03-14T02:17:43.533Z,5.00
2018-03-14T02:18:15.228Z,6.95
2018-03-14T02:18:46.880Z,5.55
2018-03-14T02:19:18.511Z,6.45
2018-03-14T02:19:50.188Z,5.90
2018-03-14T02:20:21.839Z,7.53
2018-03-14T02:20:53.480Z,6.82
2018-03-14T02:21:25.123Z,8.23
2018-03-14T02:21:56.761Z,6.62
2018-03-14T02:22:28.377Z,7.93
2018-03-14T02:23:00.004Z,5.32
2018-03-14T02:23:31.659Z,6.45
2018-03-14T02:24:03.288Z,5.28
2018-03-14T02:24:34.928Z,8.55
2018-03-14T02:25:06.544Z,7.78
2018-03-14T02:25:38.216Z,5.22
2018-03-14T02:26:09.847Z,5.82
2018-03-14T02:26:41.464Z,6.50
2018-03-14T02:27:13.101Z,5.87
2018-03-14T02:27:44.737Z,7.72
2018-03-14T02:28:16.373Z,7.28
2018-03-14T02:28:48.013Z,7.22
2018-03-14T02:29:19.652Z,6.00
2018-03-14T02:29:51.299Z,6.07
2018-03-14T02:30:22.932Z,5.65
2018-03-14T02:30:54.617Z,7.37
2018-03-14T02:31:26.220Z,8.45
2018-03-14T02:31:57.877Z,8.35
2018-03-14T02:32:29.501Z,6.03
2018-03-14T02:33:01.129Z,6.53
2018-03-14T02:33:32.771Z,9.00
2018-03-14T02:34:04.421Z,5.87
2018-03-14T02:34:36.060Z,5.57
2018-03-14T02:35:07.692Z,5.45
2018-03-14T02:35:39.310Z,6.75
2018-03-14T02:36:11.017Z,6.05
2018-03-14T02:37:01.037Z,6.12
2018-03-14T02:37:32.660Z,5.75
2018-03-14T02:38:04.341Z,6.20
2018-03-14T02:38:35.988Z,8.48
2018-03-14T02:39:07.625Z,7.97
2018-03-14T02:39:39.269Z,8.85
2018-03-14T02:40:10.899Z,6.12
2018-03-14T02:40:42.535Z,8.45
2018-03-14T02:41:14.155Z,5.53
2018-03-14T02:41:45.810Z,7.53
2018-03-14T02:42:17.450Z,12.25
2018-03-14T02:42:49.065Z,6.30
2018-03-14T02:43:20.704Z,5.82
2018-03-14T02:43:52.353Z,5.15
2018-03-14T02:44:24.022Z,7.30
2018-03-14T02:44:55.647Z,8.43
2018-03-14T02:45:27.261Z,6.90
2018-03-14T02:45:58.945Z,6.10
2018-03-14T02:46:30.555Z,6.37
2018-03-14T02:47:02.193Z,6.72
2018-03-14T02:47:33.815Z,7.87
2018-03-14T02:48:05.425Z,8.45
2018-03-14T02:48:37.059Z,7.28
2018-03-14T02:49:08.711Z,10.80
2018-03-14T02:49:40.337Z,6.35
2018-03-14T02:50:11.936Z,7.07
2018-03-14T02:50:43.564Z,6.87
2018-03-14T02:51:15.201Z,7.57
2018-03-14T02:51:46.819Z,5.37
2018-03-14T02:52:18.445Z,7.93
2018-03-14T02:52:50.036Z,7.57
2018-03-14T02:53:21.673Z,7.65
2018-03-14T02:53:53.314Z,5.85
2018-03-14T02:54:28.037Z,6.50
2018-03-14T02:54:59.676Z,8.40
2018-03-14T02:55:31.272Z,6.12
2018-03-14T02:56:02.963Z,6.50
2018-03-14T02:56:34.572Z,7.35
2018-03-14T02:57:06.209Z,7.30
2018-03-14T02:57:37.824Z,8.23
2018-03-14T02:58:09.563Z,7.07
2018-03-14T02:58:41.197Z,7.70
2018-03-14T02:59:12.817Z,7.10
2018-03-14T02:59:44.433Z,7.32
2018-03-14T03:00:16.083Z,8.27
2018-03-14T03:00:47.705Z,8.20
2018-03-14T03:01:19.312Z,7.12
2018-03-14T03:01:50.931Z,8.73
2018-03-14T03:02:22.544Z,8.48
2018-03-14T03:02:54.141Z,7.72
2018-03-14T03:03:25.772Z,7.68
2018-03-14T03:03:57.404Z,6.07
2018-03-14T03:04:29.020Z,8.48
2018-03-14T03:05:00.657Z,7.97
2018-03-14T03:05:32.312Z,11.40
2018-03-14T03:06:03.941Z,10.57
2018-03-14T03:06:35.557Z,7.82
2018-03-14T03:07:07.200Z,7.62
2018-03-14T03:07:38.848Z,10.95
2018-03-14T03:08:10.484Z,8.75
2018-03-14T03:08:42.127Z,9.63
2018-03-14T03:09:13.771Z,10.20
2018-03-14T03:09:45.417Z,7.68
2018-03-14T03:10:17.040Z,11.70
2018-03-14T03:10:48.673Z,13.98
2018-03-14T03:11:20.297Z,9.90
2018-03-14T03:11:51.921Z,6.78
2018-03-14T03:12:23.585Z,8.02
2018-03-14T03:12:55.210Z,12.13
2018-03-14T03:13:26.822Z,9.45
2018-03-14T03:13:58.471Z,8.75
2018-03-14T03:14:30.085Z,8.32
2018-03-14T03:15:01.719Z,7.70
2018-03-14T03:15:33.359Z,8.60
2018-03-14T03:16:04.997Z,9.95
2018-03-14T03:16:36.628Z,9.88
2018-03-14T03:17:08.249Z,9.95
2018-03-14T03:17:39.893Z,11.48
2018-03-14T03:18:11.506Z,9.05
2018-03-14T03:18:43.157Z,9.18
2018-03-14T03:19:14.761Z,9.13
2018-03-14T03:19:46.397Z,9.80
2018-03-14T03:20:18.065Z,10.98
2018-03-14T03:20:49.683Z,7.22
2018-03-14T03:21:21.332Z,8.07
2018-03-14T03:21:52.961Z,9.52
2018-03-14T03:22:24.602Z,9.38
2018-03-14T03:22:56.208Z,9.38
2018-03-14T03:23:27.857Z,10.55
2018-03-14T03:23:59.495Z,11.05
2018-03-14T03:24:31.125Z,9.10
2018-03-14T03:25:06.349Z,10.10
2018-03-14T03:25:37.979Z,9.73
2018-03-14T03:26:09.630Z,9.30
2018-03-14T03:26:41.293Z,9.95
2018-03-14T03:27:12.907Z,9.43
2018-03-14T03:27:44.526Z,8.25
2018-03-14T03:28:16.131Z,10.38
2018-03-14T03:28:47.753Z,10.35
2018-03-14T03:29:19.372Z,12.18
2018-03-14T03:29:50.992Z,7.97
2018-03-14T03:30:22.634Z,7.80
2018-03-14T03:30:54.262Z,11.77
2018-03-14T03:31:25.884Z,10.93
2018-03-14T03:31:57.535Z,10.18
2018-03-14T03:32:29.170Z,8.88
2018-03-14T03:33:00.793Z,9.40
2018-03-14T03:33:32.433Z,8.98
2018-03-14T03:34:04.072Z,10.32
2018-03-14T03:34:35.680Z,8.00
2018-03-14T03:35:07.300Z,10.38
2018-03-14T03:35:38.927Z,9.18
2018-03-14T03:36:10.570Z,9.02
2018-03-14T03:36:42.205Z,11.32
2018-03-14T03:37:13.863Z,10.60
2018-03-14T03:37:45.488Z,9.98
2018-03-14T03:38:17.137Z,13.70
2018-03-14T03:38:48.786Z,9.48
2018-03-14T03:39:20.427Z,10.50
2018-03-14T03:39:52.116Z,10.30
2018-03-14T03:40:23.760Z,10.60
2018-03-14T03:40:55.421Z,14.38
2018-03-14T03:41:27.065Z,11.40
2018-03-14T03:41:58.687Z,12.65
2018-03-14T03:42:30.332Z,9.23
2018-03-14T03:43:01.950Z,13.75
2018-03-14T03:43:33.589Z,12.35
2018-03-14T03:44:05.237Z,8.45
2018-03-14T03:44:36.874Z,9.32
2018-03-14T03:45:08.507Z,11.68
2018-03-14T03:45:40.142Z,10.52
2018-03-14T03:46:11.786Z,10.95
2018-03-14T03:46:43.418Z,7.72
2018-03-14T03:47:15.053Z,10.27
2018-03-14T03:47:46.684Z,10.40
2018-03-14T03:48:18.309Z,7.93
2018-03-14T03:48:49.922Z,9.55
2018-03-14T03:49:21.569Z,10.48
2018-03-14T03:49:53.215Z,9.27
2018-03-14T03:50:24.853Z,16.48
2018-03-14T03:50:56.487Z,11.12
2018-03-14T03:51:28.110Z,11.93
2018-03-14T03:51:59.747Z,10.55
2018-03-14T03:52:31.371Z,12.10
2018-03-14T03:53:03.018Z,9.55
2018-03-14T03:53:34.700Z,9.90
2018-03-14T03:54:06.305Z,10.38
2018-03-14T03:54:37.941Z,15.25
2018-03-14T03:55:09.550Z,11.00
2018-03-14T03:55:41.183Z,11.32
2018-03-14T03:56:12.819Z,14.45
2018-03-14T03:56:44.433Z,12.48
2018-03-14T03:57:16.073Z,12.73
2018-03-14T03:57:47.684Z,10.65
2018-03-14T03:58:19.349Z,10.95
2018-03-14T03:58:50.978Z,11.82
2018-03-14T03:59:22.606Z,10.80
2018-03-14T03:59:54.229Z,12.05
2018-03-14T04:00:25.877Z,11.05
2018-03-14T04:00:57.507Z,10.80
2018-03-14T04:01:29.148Z,12.68
2018-03-14T04:02:00.803Z,10.63
2018-03-14T04:02:32.412Z,12.68
2018-03-14T04:03:04.033Z,11.05
2018-03-14T04:03:35.664Z,11.63
2018-03-14T04:04:07.332Z,13.07
2018-03-14T04:04:38.961Z,14.25
2018-03-14T04:05:10.581Z,15.52
2018-03-14T04:05:42.234Z,14.35
2018-03-14T04:06:13.862Z,16.35
2018-03-14T04:06:45.472Z,12.73
2018-03-14T04:07:17.117Z,11.68
2018-03-14T04:07:48.740Z,12.68
2018-03-14T04:08:20.366Z,13.62
2018-03-14T04:08:52.021Z,11.15
2018-03-14T04:09:23.649Z,12.45
2018-03-14T04:09:55.288Z,15.63
2018-03-14T04:10:26.925Z,14.18
2018-03-14T04:10:58.563Z,16.55
2018-03-14T04:11:30.184Z,14.20
2018-03-14T04:12:01.805Z,14.20
2018-03-14T04:12:33.421Z,15.45
2018-03-14T04:13:05.028Z,16.05
2018-03-14T04:13:36.651Z,14.02
2018-03-14T04:14:08.310Z,15.93
2018-03-14T04:14:39.964Z,11.93
2018-03-14T04:15:11.596Z,11.07
2018-03-14T04:15:43.210Z,18.35
2018-03-14T04:16:14.870Z,12.68
2018-03-14T04:16:46.490Z,14.63
2018-03-14T04:17:18.117Z,12.73
2018-03-14T04:17:49.754Z,13.20
2018-03-14T04:18:21.382Z,13.25
2018-03-14T04:18:53.005Z,11.60
2018-03-14T04:19:24.621Z,13.98
2018-03-14T04:19:56.245Z,15.82
2018-03-14T04:20:27.890Z,14.20
2018-03-14T04:20:59.532Z,12.20
2018-03-14T04:21:31.148Z,13.00
2018-03-14T04:22:02.793Z,13.15
2018-03-14T04:22:34.434Z,14.98
2018-03-14T04:23:06.084Z,12.35
2018-03-14T04:23:37.737Z,15.80
2018-03-14T04:24:09.424Z,12.32
2018-03-14T04:24:41.046Z,14.93
2018-03-14T04:25:12.659Z,12.90
2018-03-14T04:25:44.291Z,13.05
2018-03-14T04:26:15.909Z,16.37
2018-03-14T04:26:47.544Z,18.83
2018-03-14T04:27:19.188Z,14.02
2018-03-14T04:27:50.815Z,14.50
2018-03-14T04:28:22.476Z,11.63
2018-03-14T04:28:54.099Z,12.30
2018-03-14T04:29:25.777Z,12.85
2018-03-14T04:29:57.407Z,15.30
2018-03-14T04:30:29.014Z,13.20
2018-03-14T04:31:00.632Z,15.05
2018-03-14T04:31:32.325Z,12.98
2018-03-14T04:32:03.912Z,11.07
2018-03-14T04:32:35.547Z,14.52
2018-03-14T04:33:07.176Z,13.70
2018-03-14T04:33:38.824Z,14.43
2018-03-14T04:34:10.463Z,13.20
2018-03-14T04:34:42.098Z,13.50
2018-03-14T04:35:13.708Z,13.77
2018-03-14T04:35:45.326Z,14.38
2018-03-14T04:36:16.944Z,12.40
2018-03-14T04:36:48.551Z,11.95
2018-03-14T04:37:20.160Z,13.38
2018-03-14T04:37:51.788Z,12.40
2018-03-14T04:38:23.444Z,13.02
2018-03-14T04:38:55.059Z,12.85
2018-03-14T04:39:26.704Z,11.68
2018-03-14T04:39:58.338Z,14.48
2018-03-14T04:40:29.951Z,11.38
2018-03-14T04:41:01.596Z,12.50
2018-03-14T04:41:33.226Z,11.20
2018-03-14T04:42:04.846Z,13.85
2018-03-14T04:42:36.497Z,13.30
2018-03-14T04:43:08.117Z,17.20
2018-03-14T04:43:39.755Z,15.73
2018-03-14T04:44:11.395Z,11.80
2018-03-14T04:44:43.025Z,13.38
2018-03-14T04:45:14.644Z,13.02
2018-03-14T04:45:46.261Z,15.77
2018-03-14T04:46:17.883Z,15.30
2018-03-14T04:46:49.526Z,16.25
2018-03-14T04:47:21.140Z,15.98
2018-03-14T04:47:52.777Z,19.95
2018-03-14T04:48:24.401Z,17.17
2018-03-14T04:48:56.021Z,21.65
2018-03-14T04:49:27.651Z,16.52
2018-03-14T04:49:59.289Z,24.75
2018-03-14T04:50:30.934Z,20.90
2018-03-14T04:51:02.567Z,18.70
2018-03-14T04:51:34.190Z,19.23
2018-03-14T04:52:05.810Z,19.12
2018-03-14T04:52:37.430Z,15.70
2018-03-14T04:53:09.073Z,19.12
2018-03-14T04:53:40.697Z,21.37
2018-03-14T04:54:12.328Z,34.22
2018-03-14T04:54:43.952Z,26.15
2018-03-14T04:55:15.572Z,21.40
2018-03-14T04:55:47.227Z,17.17
2018-03-14T04:56:18.846Z,22.95
2018-03-14T04:56:50.484Z,21.65
2018-03-14T04:57:22.118Z,29.87
2018-03-14T04:57:53.732Z,27.00
2018-03-14T04:58:25.377Z,25.25
2018-03-14T04:58:56.985Z,18.12
2018-03-14T04:59:28.612Z,35.47
2018-03-14T05:00:00.246Z,29.48
2018-03-14T05:00:31.860Z,23.12
2018-03-14T05:01:03.511Z,35.33
2018-03-14T05:01:35.164Z,28.40
2018-03-14T05:02:06.777Z,32.55
2018-03-14T05:02:38.417Z,30.12
2018-03-14T05:03:10.049Z,19.83
2018-03-14T05:03:41.688Z,28.92
2018-03-14T05:04:13.323Z,30.62
2018-03-14T05:04:44.950Z,21.55
2018-03-14T05:05:16.584Z,19.12
2018-03-14T05:05:48.235Z,35.42
2018-03-14T05:06:19.882Z,25.90
2018-03-14T05:06:51.490Z,31.02
2018-03-14T05:07:23.137Z,20.62
2018-03-14T05:07:54.771Z,17.02
2018-03-14T05:08:26.375Z,18.80
2018-03-14T05:08:58.022Z,24.63
2018-03-14T05:09:29.636Z,20.85
2018-03-14T05:10:01.317Z,17.60
2018-03-14T05:10:32.952Z,22.50
2018-03-14T05:11:04.572Z,17.02
2018-03-14T05:11:36.232Z,24.35
2018-03-14T05:12:08.207Z,20.30
2018-03-14T05:12:39.871Z,20.67
2018-03-14T05:13:11.517Z,20.42
2018-03-14T05:13:43.142Z,17.37
2018-03-14T05:14:14.794Z,26.45
2018-03-14T05:14:46.398Z,18.77
2018-03-14T05:15:18.045Z,20.80
2018-03-14T05:15:49.699Z,14.48
2018-03-14T05:16:21.357Z,18.48
2018-03-14T05:16:52.982Z,12.55
2018-03-14T05:17:24.627Z,12.80
2018-03-14T05:17:56.234Z,14.80
2018-03-14T05:18:27.883Z,11.68
2018-03-14T05:18:59.519Z,11.85
2018-03-14T05:19:31.176Z,13.43
2018-03-14T05:20:02.826Z,13.20
2018-03-14T05:20:34.510Z,9.82
2018-03-14T05:21:06.144Z,11.80
2018-03-14T05:21:37.772Z,12.60
2018-03-14T05:22:09.410Z,13.75
2018-03-14T05:22:41.022Z,11.48
2018-03-14T05:23:12.632Z,13.88
2018-03-14T05:23:44.258Z,10.07
2018-03-14T05:24:15.860Z,17.48
2018-03-14T05:24:47.500Z,14.55
2018-03-14T05:25:32.532Z,11.18
2018-03-14T05:26:04.137Z,13.32
2018-03-14T05:26:35.760Z,11.43
2018-03-14T05:27:07.378Z,11.65
2018-03-14T05:27:39.012Z,15.43
2018-03-14T05:28:10.632Z,11.07
2018-03-14T05:28:42.241Z,13.77
2018-03-14T05:29:13.871Z,11.45
2018-03-14T05:29:45.524Z,13.93
2018-03-14T05:30:17.157Z,16.80
2018-03-14T05:30:48.794Z,13.48
2018-03-14T05:31:20.422Z,11.07
2018-03-14T05:31:52.079Z,9.25
2018-03-14T05:32:23.689Z,11.50
2018-03-14T05:32:55.316Z,13.65
2018-03-14T05:33:26.960Z,13.80
2018-03-14T05:33:58.592Z,12.50
2018-03-14T05:34:30.223Z,10.75
2018-03-14T05:35:01.857Z,11.00
2018-03-14T05:35:33.498Z,11.38
2018-03-14T05:36:05.114Z,9.15
2018-03-14T05:36:36.738Z,10.23
2018-03-14T05:37:08.351Z,12.23
2018-03-14T05:37:40.000Z,8.32
2018-03-14T05:38:11.673Z,8.50
2018-03-14T05:38:43.294Z,9.38
2018-03-14T05:39:14.952Z,10.20
2018-03-14T05:39:46.580Z,12.70
2018-03-14T05:40:18.202Z,13.20
2018-03-14T05:40:49.854Z,13.48
2018-03-14T05:41:21.468Z,10.20
2018-03-14T05:41:53.077Z,11.20
2018-03-14T05:42:24.724Z,9.52
2018-03-14T05:42:56.333Z,9.05
2018-03-14T05:43:27.966Z,10.70
2018-03-14T05:43:59.578Z,10.73
2018-03-14T05:44:31.212Z,12.32
2018-03-14T05:45:02.913Z,9.38
2018-03-14T05:45:34.520Z,9.32
2018-03-14T05:46:06.142Z,9.85
2018-03-14T05:46:37.785Z,9.90
2018-03-14T05:47:09.424Z,12.45
2018-03-14T05:47:41.046Z,12.32
2018-03-14T05:48:12.672Z,10.63
2018-03-14T05:48:44.335Z,10.43
2018-03-14T05:49:15.976Z,10.63
2018-03-14T05:49:47.606Z,10.48
2018-03-14T05:50:19.233Z,16.05
2018-03-14T05:50:50.924Z,9.55
2018-03-14T05:51:22.564Z,11.90
2018-03-14T05:51:54.184Z,11.70
2018-03-14T05:52:25.903Z,13.48
2018-03-14T05:52:57.664Z,15.45
2018-03-14T05:53:29.343Z,12.40
2018-03-14T05:54:00.984Z,12.18
2018-03-14T05:54:32.638Z,12.80
2018-03-14T05:55:04.301Z,17.17
2018-03-14T05:55:35.928Z,12.32
2018-03-14T05:56:07.555Z,14.45
2018-03-14T05:56:39.200Z,19.15
2018-03-14T05:57:10.807Z,17.80
2018-03-14T05:57:42.416Z,10.20
2018-03-14T05:58:14.040Z,13.40
2018-03-14T05:58:45.678Z,16.90
2018-03-14T05:59:17.338Z,13.57
2018-03-14T05:59:48.956Z,15.90
2018-03-14T06:00:20.596Z,12.68
2018-03-14T06:00:52.226Z,9.98
2018-03-14T06:01:23.850Z,11.50
2018-03-14T06:01:55.488Z,17.23
2018-03-14T06:02:27.104Z,15.50
2018-03-14T06:02:58.732Z,12.35
2018-03-14T06:03:30.349Z,14.57
2018-03-14T06:04:01.996Z,16.98
2018-03-14T06:04:33.960Z,13.13
2018-03-14T06:05:05.566Z,13.62
2018-03-14T06:05:37.196Z,11.68
2018-03-14T06:06:08.820Z,13.48
2018-03-14T06:06:40.464Z,10.38
2018-03-14T06:07:12.100Z,12.98
2018-03-14T06:07:43.736Z,15.43
2018-03-14T06:08:15.348Z,16.35
2018-03-14T06:08:47.006Z,13.82
2018-03-14T06:09:18.644Z,22.35
2018-03-14T06:09:50.267Z,15.93
2018-03-14T06:10:21.886Z,17.23
2018-03-14T06:10:53.518Z,27.27
2018-03-14T06:11:25.140Z,16.98
2018-03-14T06:11:56.750Z,26.27
2018-03-14T06:12:28.360Z,18.12
2018-03-14T06:12:59.983Z,16.08
2018-03-14T06:13:31.620Z,24.15
2018-03-14T06:14:03.292Z,17.17
2018-03-14T06:14:34.932Z,18.70
2018-03-14T06:15:06.576Z,22.05
2018-03-14T06:15:38.213Z,22.83
2018-03-14T06:16:09.834Z,30.37
2018-03-14T06:16:41.462Z,23.62
2018-03-14T06:17:13.104Z,25.00
2018-03-14T06:17:44.732Z,19.27
2018-03-14T06:18:16.356Z,19.87
2018-03-14T06:18:48.012Z,22.37
2018-03-14T06:19:19.628Z,22.13
2018-03-14T06:19:51.257Z,18.70
2018-03-14T06:20:22.892Z,25.55
2018-03-14T06:20:54.516Z,21.40
2018-03-14T06:21:26.146Z,27.65
2018-03-14T06:21:57.764Z,23.98
2018-03-14T06:22:29.672Z,27.42
2018-03-14T06:23:01.308Z,30.85
2018-03-14T06:23:32.939Z,27.40
2018-03-14T06:24:04.583Z,24.50
2018-03-14T06:24:36.193Z,30.80
2018-03-14T06:25:07.828Z,26.33
2018-03-14T06:25:39.462Z,26.80
2018-03-14T06:26:11.104Z,30.90
2018-03-14T06:26:43.708Z,30.25
2018-03-14T06:27:15.332Z,29.75
2018-03-14T06:27:46.952Z,30.42
2018-03-14T06:28:18.572Z,32.10
2018-03-14T06:28:50.214Z,27.77
2018-03-14T06:29:21.844Z,26.55
2018-03-14T06:29:53.480Z,26.87
2018-03-14T06:30:25.130Z,21.70
2018-03-14T06:30:56.785Z,27.13
2018-03-14T06:31:28.414Z,23.67
2018-03-14T06:32:00.036Z,21.48
2018-03-14T06:32:31.668Z,24.02
2018-03-14T06:33:03.324Z,24.85
2018-03-14T06:33:34.956Z,26.08
2018-03-14T06:34:06.577Z,23.48
2018-03-14T06:34:38.216Z,35.38
2018-03-14T06:35:09.836Z,30.55
2018-03-14T06:35:41.466Z,30.80
2018-03-14T06:36:13.114Z,31.05
2018-03-14T06:36:44.737Z,27.05
2018-03-14T06:37:16.372Z,35.22
2018-03-14T06:37:47.996Z,35.63
2018-03-14T06:38:19.624Z,32.17
2018-03-14T06:38:51.264Z,36.28
2018-03-14T06:39:22.892Z,25.12
2018-03-14T06:39:54.547Z,34.20
2018-03-14T06:40:26.188Z,31.42
2018-03-14T06:40:57.844Z,34.67
2018-03-14T06:41:29.472Z,50.15
2018-03-14T06:42:01.116Z,34.13
2018-03-14T06:42:32.748Z,42.65
2018-03-14T06:43:04.370Z,43.58
2018-03-14T06:43:36.006Z,42.25
2018-03-14T06:44:07.652Z,40.00
2018-03-14T06:44:39.276Z,42.10
2018-03-14T06:45:10.912Z,36.33
2018-03-14T06:45:42.533Z,40.92
2018-03-14T06:46:14.158Z,38.42
2018-03-14T06:46:45.818Z,52.30
2018-03-14T06:47:17.444Z,43.72
2018-03-14T06:47:49.074Z,33.20
2018-03-14T06:48:20.699Z,37.25
2018-03-14T06:48:52.316Z,50.30
2018-03-14T06:49:23.939Z,36.88
2018-03-14T06:49:55.572Z,45.25
2018-03-14T06:50:27.221Z,50.78
2018-03-14T06:50:58.857Z,39.38
2018-03-14T06:51:30.496Z,42.28
2018-03-14T06:52:02.174Z,57.90
2018-03-14T06:52:33.832Z,50.22
2018-03-14T06:53:05.448Z,54.00
2018-03-14T06:53:37.070Z,54.80
2018-03-14T06:54:08.694Z,40.15
2018-03-14T06:54:40.298Z,41.80
2018-03-14T06:55:11.916Z,43.58
2018-03-14T06:55:43.543Z,41.28
2018-03-14T06:56:15.172Z,47.35
2018-03-14T06:56:46.772Z,44.75
2018-03-14T06:57:18.425Z,43.58
2018-03-14T06:57:50.058Z,50.40
2018-03-14T06:58:40.218Z,49.28
2018-03-14T06:59:30.376Z,40.95
2018-03-14T07:00:20.563Z,42.28
2018-03-14T07:01:10.595Z,42.20